createdAt,value
2022-10-22T00:00:56.517Z,13.25
2022-10-22T00:03:23.238Z,13.40
2022-10-22T00:05:49.712Z,13.88
2022-10-22T00:08:16.203Z,12.32
2022-10-22T00:10:43.993Z,12.52
2022-10-22T00:13:11.419Z,12.45
2022-10-22T00:15:38.185Z,13.32
2022-10-22T00:18:04.930Z,12.23
2022-10-22T00:20:31.656Z,12.18
2022-10-22T00:22:58.149Z,12.20
2022-10-22T00:25:24.732Z,13.13
2022-10-22T00:27:52.593Z,11.77
2022-10-22T00:30:19.329Z,13.77
2022-10-22T00:32:45.800Z,13.82
2022-10-22T00:35:12.301Z,13.95
2022-10-22T00:37:38.822Z,13.02
2022-10-22T00:40:06.185Z,12.48
2022-10-22T00:42:32.648Z,12.07
2022-10-22T00:45:16.088Z,13.23
2022-10-22T00:47:45.478Z,13.00
2022-10-22T00:50:17.615Z,11.98
2022-10-22T00:52:44.463Z,11.15
2022-10-22T00:55:12.384Z,10.90
2022-10-22T00:57:39.346Z,12.07
2022-10-22T01:00:09.372Z,12.40
2022-10-22T01:02:36.052Z,11.40
2022-10-22T01:05:03.795Z,11.93
2022-10-22T01:07:30.630Z,12.68
2022-10-22T01:10:05.934Z,11.10
2022-10-22T01:12:43.624Z,10.73
2022-10-22T01:15:19.480Z,10.82
2022-10-22T01:17:54.239Z,10.60
2022-10-22T01:20:44.409Z,10.18
2022-10-22T01:23:26.451Z,12.45
2022-10-22T01:25:58.559Z,11.95
2022-10-22T01:28:43.014Z,12.23
2022-10-22T01:31:13.322Z,10.75
2022-10-22T01:33:40.679Z,10.60
2022-10-22T01:36:08.239Z,10.30
2022-10-22T01:38:36.070Z,10.13
2022-10-22T01:41:02.879Z,11.73
2022-10-22T01:43:29.403Z,11.98
2022-10-22T01:46:00.793Z,12.27
2022-10-22T01:48:39.443Z,10.55
2022-10-22T01:51:22.273Z,10.02
2022-10-22T01:53:54.158Z,10.35
2022-10-22T01:56:39.028Z,9.63
2022-10-22T01:59:12.809Z,9.98
2022-10-22T02:01:48.156Z,10.73
2022-10-22T02:04:20.233Z,9.15
2022-10-22T02:06:50.608Z,9.82
2022-10-22T02:09:19.993Z,9.82
2022-10-22T02:11:48.541Z,9.70
2022-10-22T02:14:17.658Z,9.60
2022-10-22T02:16:48.139Z,9.48
2022-10-22T02:19:19.639Z,10.35
2022-10-22T02:21:46.209Z,10.77
2022-10-22T02:24:13.157Z,8.98
2022-10-22T02:26:44.712Z,8.98
2022-10-22T02:29:15.329Z,10.73
2022-10-22T02:31:46.794Z,10.68
2022-10-22T02:34:24.185Z,10.18
2022-10-22T02:36:51.500Z,10.13
2022-10-22T02:39:20.746Z,9.38
2022-10-22T02:41:48.383Z,9.35
2022-10-22T02:44:14.960Z,9.23
2022-10-22T02:46:43.263Z,9.88
2022-10-22T02:49:11.186Z,8.02
2022-10-22T02:51:37.703Z,8.80
2022-10-22T02:54:04.270Z,8.57
2022-10-22T02:56:30.787Z,8.05
2022-10-22T02:58:57.314Z,8.18
2022-10-22T03:01:23.932Z,9.00
2022-10-22T03:03:50.740Z,8.70
2022-10-22T03:06:18.751Z,10.15
2022-10-22T03:08:45.683Z,8.50
2022-10-22T03:11:12.235Z,9.05
2022-10-22T03:13:38.724Z,8.57
2022-10-22T03:16:05.935Z,8.90
2022-10-22T03:18:32.429Z,8.43
2022-10-22T03:21:07.748Z,8.13
2022-10-22T03:23:36.153Z,7.60
2022-10-22T03:26:03.645Z,8.73
2022-10-22T03:28:30.295Z,7.47
2022-10-22T03:30:56.745Z,7.95
2022-10-22T03:33:23.245Z,7.90
2022-10-22T03:35:49.750Z,7.82
2022-10-22T03:38:16.465Z,7.68
2022-10-22T03:40:45.425Z,7.30
2022-10-22T03:43:12.209Z,7.40
2022-10-22T03:48:10.199Z,7.00
2022-10-22T03:50:36.673Z,6.20
2022-10-22T03:53:03.816Z,7.45
2022-10-22T03:55:30.460Z,7.60
2022-10-22T03:57:58.290Z,8.13
2022-10-22T04:00:24.751Z,6.95
2022-10-22T04:02:51.449Z,7.57
2022-10-22T04:05:17.970Z,6.63
2022-10-22T04:07:44.568Z,6.90
2022-10-22T04:10:11.077Z,7.18
2022-10-22T04:12:37.630Z,6.45
2022-10-22T04:15:06.446Z,7.13
2022-10-22T04:17:34.486Z,7.18
2022-10-22T04:20:01.509Z,7.22
2022-10-22T04:22:28.178Z,7.88
2022-10-22T04:24:54.810Z,6.20
2022-10-22T04:27:21.394Z,7.03
2022-10-22T04:29:47.854Z,6.90
2022-10-22T04:32:15.776Z,7.63
2022-10-22T04:34:42.318Z,7.18
2022-10-22T04:37:08.802Z,6.55
2022-10-22T04:39:35.282Z,7.18
2022-10-22T04:42:01.819Z,6.97
2022-10-22T04:44:28.304Z,6.65
2022-10-22T04:46:54.821Z,6.38
2022-10-22T04:49:22.682Z,8.15
2022-10-22T04:51:49.219Z,10.00
2022-10-22T04:54:15.824Z,9.30
2022-10-22T04:56:42.372Z,9.68
2022-10-22T04:59:10.661Z,8.60
2022-10-22T05:01:42.658Z,8.93
2022-10-22T05:04:12.417Z,8.83
2022-10-22T05:06:40.739Z,9.23
2022-10-22T05:09:11.531Z,8.82
2022-10-22T05:11:40.855Z,9.13
2022-10-22T05:14:08.583Z,8.18
2022-10-22T05:16:35.800Z,20.70
2022-10-22T05:19:03.785Z,20.83
2022-10-22T05:21:30.843Z,18.05
2022-10-22T05:23:58.926Z,21.38
2022-10-22T05:26:26.020Z,22.17
2022-10-22T05:28:52.873Z,24.30
2022-10-22T05:31:20.661Z,26.92
2022-10-22T05:33:47.411Z,32.05
2022-10-22T05:36:15.735Z,41.83
2022-10-22T05:38:42.393Z,39.60
2022-10-22T05:41:12.708Z,28.48
2022-10-22T05:43:39.900Z,28.65
2022-10-22T05:46:08.224Z,27.70
2022-10-22T05:48:35.413Z,29.20
2022-10-22T05:51:02.300Z,35.38
2022-10-22T05:53:28.771Z,39.58
2022-10-22T05:55:55.237Z,46.85
2022-10-22T05:58:23.054Z,41.42
2022-10-22T06:00:49.555Z,30.58
2022-10-22T06:03:16.073Z,24.40
2022-10-22T06:05:42.660Z,18.90
2022-10-22T06:08:14.501Z,22.23
2022-10-22T06:10:44.678Z,21.85
2022-10-22T06:13:11.180Z,22.88
2022-10-22T06:15:39.022Z,19.08
2022-10-22T06:18:05.608Z,19.17
2022-10-22T06:20:34.120Z,17.83
2022-10-22T06:23:00.699Z,16.23
2022-10-22T06:25:27.195Z,14.95
2022-10-22T06:27:53.651Z,13.80
2022-10-22T06:30:20.182Z,12.60
2022-10-22T06:32:47.993Z,10.65
2022-10-22T06:35:14.722Z,9.05
2022-10-22T06:37:41.475Z,9.88
2022-10-22T06:40:09.113Z,9.48
2022-10-22T06:42:35.649Z,7.97
2022-10-22T06:47:33.707Z,8.88
2022-10-22T06:50:01.721Z,8.35
2022-10-22T06:52:28.220Z,8.85
2022-10-22T06:54:54.749Z,8.60
2022-10-22T06:57:21.529Z,9.25
2022-10-22T06:59:48.019Z,10.35
2022-10-22T07:02:14.512Z,9.40
2022-10-22T07:04:41.006Z,9.93
2022-10-22T07:07:08.858Z,9.82
2022-10-22T07:09:35.345Z,10.68
2022-10-22T07:12:01.857Z,10.20
2022-10-22T07:14:28.378Z,9.38
2022-10-22T07:16:55.089Z,11.35
2022-10-22T07:19:21.686Z,11.95
2022-10-22T07:21:48.209Z,13.07
2022-10-22T07:24:16.046Z,12.00
2022-10-22T07:26:42.587Z,13.25
2022-10-22T07:29:09.094Z,13.23
2022-10-22T07:31:35.678Z,13.43
2022-10-22T07:34:02.386Z,14.73
2022-10-22T07:36:28.954Z,13.18
2022-10-22T07:38:57.379Z,13.40
2022-10-22T07:41:26.295Z,15.82
2022-10-22T07:43:52.935Z,13.82
2022-10-22T07:46:20.133Z,13.93
2022-10-22T07:48:46.987Z,13.25
2022-10-22T07:51:14.028Z,15.82
2022-10-22T07:53:40.838Z,12.90
2022-10-22T07:56:07.814Z,17.45
2022-10-22T07:58:35.949Z,18.08
2022-10-22T08:01:03.532Z,19.20
2022-10-22T08:03:30.329Z,20.45
2022-10-22T08:05:56.886Z,27.13
2022-10-22T08:08:27.053Z,29.70
2022-10-22T08:10:58.042Z,25.60
2022-10-22T08:13:24.692Z,28.10
2022-10-22T08:15:56.439Z,17.60
2022-10-22T08:18:24.308Z,17.08
2022-10-22T08:20:51.340Z,15.57
2022-10-22T08:23:18.288Z,13.65
2022-10-22T08:25:44.777Z,13.38
2022-10-22T08:28:11.518Z,13.43
2022-10-22T08:30:38.149Z,12.85
2022-10-22T08:33:06.209Z,14.23
2022-10-22T08:35:32.755Z,13.75
2022-10-22T08:37:59.543Z,13.00
2022-10-22T08:40:31.826Z,12.93
2022-10-22T08:43:34.188Z,12.20
2022-10-22T08:46:11.995Z,13.10
2022-10-22T08:48:46.256Z,12.82
2022-10-22T08:51:16.968Z,12.43
2022-10-22T08:53:54.128Z,12.40
2022-10-22T08:56:23.719Z,12.95
2022-10-22T08:58:56.457Z,12.80
2022-10-22T09:01:32.464Z,12.63
2022-10-22T09:04:06.713Z,12.18
2022-10-22T09:06:36.674Z,12.70
2022-10-22T09:09:12.514Z,11.63
2022-10-22T09:11:42.141Z,11.73
2022-10-22T09:14:12.814Z,12.25
2022-10-22T09:16:56.021Z,11.68
2022-10-22T09:19:31.540Z,12.30
2022-10-22T09:22:08.103Z,13.07
2022-10-22T09:24:38.387Z,12.88
2022-10-22T09:27:11.215Z,12.05
2022-10-22T09:29:37.819Z,12.02
2022-10-22T09:32:05.059Z,11.82
2022-10-22T09:34:33.355Z,13.18
2022-10-22T09:37:01.228Z,12.23
2022-10-22T09:39:31.646Z,12.77
2022-10-22T09:41:58.195Z,13.23
2022-10-22T09:44:24.808Z,11.88
2022-10-22T09:46:51.549Z,12.43
2022-10-22T09:49:21.190Z,12.85
2022-10-22T09:51:55.033Z,11.93
2022-10-22T09:54:24.507Z,11.43
2022-10-22T09:56:54.366Z,11.57
2022-10-22T09:59:28.101Z,11.75
2022-10-22T10:02:13.555Z,11.30
2022-10-22T10:04:49.535Z,12.52
2022-10-22T10:07:20.033Z,11.43
2022-10-22T10:09:46.587Z,11.05
2022-10-22T10:12:24.693Z,11.38
2022-10-22T10:14:59.325Z,11.98
2022-10-22T10:17:33.836Z,10.80
2022-10-22T10:20:16.078Z,11.00
2022-10-22T10:22:54.971Z,9.80
2022-10-22T10:25:41.436Z,11.18
2022-10-22T10:28:20.693Z,10.10
2022-10-22T10:30:54.379Z,9.70
2022-10-22T10:33:32.924Z,10.20
2022-10-22T10:36:08.571Z,10.15
2022-10-22T10:41:49.026Z,9.48
2022-10-22T10:44:39.241Z,11.05
2022-10-22T10:47:18.515Z,9.07
2022-10-22T10:49:45.973Z,9.60
2022-10-22T10:52:21.326Z,9.55
2022-10-22T10:54:57.738Z,10.18
2022-10-22T10:57:40.586Z,10.07
2022-10-22T11:00:11.656Z,10.88
2022-10-22T11:03:03.232Z,9.30
2022-10-22T11:05:39.387Z,8.82
2022-10-22T11:08:13.523Z,8.55
2022-10-22T11:10:46.257Z,8.77
2022-10-22T11:16:21.025Z,9.32
2022-10-22T11:18:54.287Z,9.50
2022-10-22T11:21:27.011Z,8.63
2022-10-22T11:24:00.825Z,7.80
2022-10-22T11:26:38.840Z,8.60
2022-10-22T11:29:11.724Z,9.23
2022-10-22T11:31:38.877Z,9.05
2022-10-22T11:34:32.805Z,9.45
2022-10-22T11:37:00.075Z,8.13
2022-10-22T11:42:34.784Z,7.53
2022-10-22T11:45:04.933Z,7.88
2022-10-22T11:47:34.430Z,7.82
2022-10-22T11:50:18.458Z,8.25
2022-10-22T11:52:54.791Z,7.20
2022-10-22T11:55:45.400Z,9.82
2022-10-22T11:58:34.787Z,6.38
2022-10-22T12:01:26.944Z,6.55
2022-10-22T12:04:09.474Z,6.35
2022-10-22T12:06:52.894Z,6.78
2022-10-22T12:09:20.175Z,7.25
2022-10-22T12:11:49.434Z,6.70
2022-10-22T12:17:15.775Z,6.45
2022-10-22T12:19:44.495Z,5.63
2022-10-22T12:22:15.487Z,5.70
2022-10-22T12:24:45.570Z,5.13
2022-10-22T12:27:22.201Z,4.85
2022-10-22T12:29:54.552Z,5.43
2022-10-22T12:32:21.247Z,5.20
2022-10-22T12:37:21.005Z,5.13
2022-10-22T12:39:47.481Z,5.25
2022-10-22T12:42:16.030Z,4.55
2022-10-22T12:44:43.660Z,5.35
2022-10-22T12:47:16.159Z,4.45
2022-10-22T12:49:47.867Z,4.03
2022-10-22T12:52:20.303Z,3.88
2022-10-22T12:54:49.100Z,3.88
2022-10-22T12:57:18.335Z,3.50
2022-10-22T12:59:50.021Z,3.92
2022-10-22T13:02:21.663Z,3.20
2022-10-22T13:05:22.840Z,3.60
2022-10-22T13:07:51.594Z,3.47
2022-10-22T13:10:24.374Z,3.47
2022-10-22T13:12:54.681Z,3.15
2022-10-22T13:15:33.166Z,2.83
2022-10-22T13:18:14.666Z,2.83
2022-10-22T13:20:50.853Z,2.88
2022-10-22T13:23:19.504Z,2.20
2022-10-22T13:25:57.502Z,2.45
2022-10-22T13:28:24.666Z,3.05
2022-10-22T13:30:53.161Z,2.67
2022-10-22T13:33:24.304Z,3.05
2022-10-22T13:35:51.041Z,2.67
2022-10-22T13:38:20.108Z,2.97
2022-10-22T13:40:46.640Z,2.70
2022-10-22T13:43:13.545Z,2.88
2022-10-22T13:45:40.363Z,2.78
2022-10-22T13:48:14.649Z,2.80
2022-10-22T13:50:42.970Z,2.15
2022-10-22T13:53:18.666Z,2.42
2022-10-22T13:55:45.884Z,3.55
2022-10-22T13:58:14.031Z,2.28
2022-10-22T14:00:43.234Z,2.50
2022-10-22T14:03:11.478Z,2.00
2022-10-22T14:05:37.967Z,2.83
2022-10-22T14:08:11.459Z,2.60
2022-10-22T14:13:06.332Z,2.40
2022-10-22T14:15:32.898Z,2.25
2022-10-22T14:18:00.231Z,2.47
2022-10-22T14:20:29.222Z,3.22
2022-10-22T14:22:56.204Z,2.60
2022-10-22T14:25:25.947Z,2.72
2022-10-22T14:27:52.887Z,3.15
2022-10-22T14:30:22.453Z,2.50
2022-10-22T14:32:49.344Z,2.38
2022-10-22T14:35:17.852Z,3.08
2022-10-22T14:37:44.394Z,3.83
2022-10-22T14:40:14.013Z,3.92
2022-10-22T14:42:44.424Z,4.97
2022-10-22T14:45:17.078Z,5.13
2022-10-22T14:47:43.816Z,4.20
2022-10-22T14:50:11.110Z,4.28
2022-10-22T14:52:37.620Z,5.40
2022-10-22T14:55:04.851Z,5.38
2022-10-22T14:57:31.376Z,5.15
2022-10-22T14:59:59.300Z,4.82
2022-10-22T15:02:25.798Z,4.65
2022-10-22T15:04:52.346Z,5.32
2022-10-22T15:07:19.145Z,4.68
2022-10-22T15:09:46.042Z,5.03
2022-10-22T15:12:12.579Z,5.20
2022-10-22T15:14:39.129Z,5.28
2022-10-22T15:17:06.977Z,7.43
2022-10-22T15:19:33.533Z,7.03
2022-10-22T15:22:00.058Z,16.25
2022-10-22T15:24:26.565Z,10.93
2022-10-22T15:26:53.106Z,13.93
2022-10-22T15:29:19.729Z,13.52
2022-10-22T15:31:48.634Z,15.25
2022-10-22T15:34:20.815Z,15.32
2022-10-22T15:36:47.320Z,15.68
2022-10-22T15:39:14.017Z,15.88
2022-10-22T15:41:40.922Z,14.68
2022-10-22T15:44:07.895Z,10.77
2022-10-22T15:46:35.575Z,10.10
2022-10-22T15:49:02.182Z,9.50
2022-10-22T15:51:30.044Z,6.47
2022-10-22T15:53:58.349Z,6.18
2022-10-22T15:56:26.779Z,6.55
2022-10-22T15:58:54.422Z,5.35
2022-10-22T16:01:21.049Z,6.47
2022-10-22T16:03:47.604Z,6.82
2022-10-22T16:06:14.111Z,6.63
2022-10-22T16:08:42.235Z,7.13
2022-10-22T16:11:09.912Z,11.05
2022-10-22T16:13:36.393Z,14.15
2022-10-22T16:16:05.337Z,15.25
2022-10-22T16:18:31.928Z,14.48
2022-10-22T16:20:58.448Z,14.60
2022-10-22T16:23:24.970Z,14.43
2022-10-22T16:25:52.828Z,11.45
2022-10-22T16:28:19.325Z,7.93
2022-10-22T16:30:45.939Z,8.40
2022-10-22T16:33:12.389Z,8.60
2022-10-22T16:35:40.552Z,7.30
2022-10-22T16:38:07.404Z,11.07
2022-10-22T16:40:33.979Z,9.60
2022-10-22T16:43:01.860Z,9.13
2022-10-22T16:45:28.379Z,9.80
2022-10-22T16:47:54.921Z,9.75
2022-10-22T16:50:21.468Z,9.48
2022-10-22T16:52:47.995Z,8.82
2022-10-22T16:55:14.516Z,9.25
2022-10-22T16:57:41.273Z,9.57
2022-10-22T17:00:11.103Z,8.43
2022-10-22T17:02:37.695Z,9.07
2022-10-22T17:05:04.705Z,7.80
2022-10-22T17:07:31.262Z,8.68
2022-10-22T17:09:57.770Z,8.75
2022-10-22T17:12:24.316Z,5.47
2022-10-22T17:14:50.906Z,4.47
2022-10-22T17:17:18.747Z,5.90
2022-10-22T17:19:45.390Z,4.85
2022-10-22T17:22:14.875Z,4.90
2022-10-22T17:24:44.180Z,4.60
2022-10-22T17:27:10.730Z,4.68
2022-10-22T17:29:37.377Z,4.10
2022-10-22T17:32:04.107Z,3.95
2022-10-22T17:34:32.361Z,4.00
2022-10-22T17:36:58.974Z,3.67
2022-10-22T17:39:26.699Z,4.90
2022-10-22T17:41:53.268Z,3.83
2022-10-22T17:44:19.774Z,5.15
2022-10-22T17:46:46.277Z,6.57
2022-10-22T17:49:16.411Z,5.43
2022-10-22T17:51:44.368Z,6.70
2022-10-22T17:54:11.987Z,10.27
2022-10-22T17:56:39.262Z,7.93
2022-10-22T17:59:06.246Z,8.15
2022-10-22T18:01:34.780Z,7.68
2022-10-22T18:04:03.956Z,7.72
2022-10-22T18:06:31.076Z,6.22
2022-10-22T18:08:59.118Z,6.60
2022-10-22T18:11:27.588Z,6.78
2022-10-22T18:13:56.043Z,10.65
2022-10-22T18:16:23.254Z,6.72
2022-10-22T18:18:51.780Z,8.00
2022-10-22T18:21:19.010Z,12.35
2022-10-22T18:23:45.861Z,13.07
2022-10-22T18:26:13.924Z,16.75
2022-10-22T18:28:40.592Z,23.75
2022-10-22T18:31:09.363Z,22.65
2022-10-22T18:33:37.255Z,14.00
2022-10-22T18:36:05.920Z,12.98
2022-10-22T18:38:32.544Z,11.90
2022-10-22T18:40:59.163Z,12.75
2022-10-22T18:43:27.970Z,12.60
2022-10-22T18:45:54.562Z,12.75
2022-10-22T18:48:21.363Z,13.05
2022-10-22T18:50:48.302Z,12.48
2022-10-22T18:53:16.056Z,11.05
2022-10-22T18:55:42.748Z,12.68
2022-10-22T18:58:09.209Z,12.00
2022-10-22T19:00:37.186Z,9.38
2022-10-22T19:03:04.022Z,10.35
2022-10-22T19:05:30.975Z,10.77
2022-10-22T19:07:57.773Z,10.98
2022-10-22T19:10:24.345Z,12.85
2022-10-22T19:12:50.828Z,15.35
2022-10-22T19:15:17.811Z,12.82
2022-10-22T19:17:45.796Z,11.43
2022-10-22T19:20:13.141Z,9.95
2022-10-22T19:22:39.645Z,7.25
2022-10-22T19:25:09.728Z,6.97
2022-10-22T19:27:38.778Z,6.13
2022-10-22T19:30:06.517Z,5.85
2022-10-22T19:32:33.009Z,4.25
2022-10-22T19:35:00.902Z,4.80
2022-10-22T19:37:27.598Z,5.00
2022-10-22T19:39:54.268Z,4.57
2022-10-22T19:42:20.716Z,4.85
2022-10-22T19:44:47.216Z,4.88
2022-10-22T19:47:13.744Z,5.15
2022-10-22T19:49:40.466Z,5.18
2022-10-22T19:52:08.416Z,5.03
2022-10-22T19:54:34.950Z,5.05
2022-10-22T19:59:33.044Z,4.97
2022-10-22T20:01:59.533Z,4.75
2022-10-22T20:04:26.375Z,5.13
2022-10-22T20:06:52.893Z,5.20
2022-10-22T20:09:20.778Z,6.32
2022-10-22T20:11:47.471Z,5.38
2022-10-22T20:14:14.199Z,4.85
2022-10-22T20:16:41.396Z,4.65
2022-10-22T20:19:08.670Z,4.47
2022-10-22T20:21:35.269Z,4.45
2022-10-22T20:24:02.015Z,4.90
2022-10-22T20:26:29.874Z,6.32
2022-10-22T20:28:57.665Z,7.63
2022-10-22T20:31:25.812Z,5.55
2022-10-22T20:33:52.464Z,4.50
2022-10-22T20:36:21.892Z,4.15
2022-10-22T20:38:49.045Z,3.92
2022-10-22T20:41:18.107Z,3.58
2022-10-22T20:43:46.708Z,4.05
2022-10-22T20:46:17.612Z,4.82
2022-10-22T20:48:44.535Z,5.10
2022-10-22T20:51:12.066Z,5.75
2022-10-22T20:53:38.656Z,4.13
2022-10-22T20:56:05.411Z,4.60
2022-10-22T20:58:31.982Z,4.88
2022-10-22T21:00:59.940Z,4.90
2022-10-22T21:03:26.587Z,5.15
2022-10-22T21:05:53.182Z,4.88
2022-10-22T21:08:19.765Z,5.45
2022-10-22T21:10:46.538Z,5.40
2022-10-22T21:13:13.322Z,4.93
2022-10-22T21:15:39.791Z,4.80
2022-10-22T21:18:08.116Z,4.80
2022-10-22T21:20:34.640Z,4.97
2022-10-22T21:23:01.210Z,5.20
2022-10-22T21:25:27.865Z,5.15
2022-10-22T21:27:54.400Z,4.85
2022-10-22T21:30:20.867Z,5.25
2022-10-22T21:32:47.388Z,4.82
2022-10-22T21:35:15.538Z,6.18
2022-10-22T21:37:42.193Z,5.10
2022-10-22T21:40:09.966Z,5.78
2022-10-22T21:42:36.642Z,4.88
2022-10-22T21:45:03.604Z,5.18
2022-10-22T21:47:30.255Z,5.05
2022-10-22T21:49:56.729Z,6.18
2022-10-22T21:52:24.571Z,5.50
2022-10-22T21:54:51.132Z,5.45
2022-10-22T21:57:17.623Z,5.30
2022-10-22T21:59:44.159Z,6.25
2022-10-22T22:02:10.710Z,5.50
2022-10-22T22:04:37.237Z,5.63
2022-10-22T22:07:03.708Z,5.45
2022-10-22T22:09:31.819Z,5.90
2022-10-22T22:11:58.291Z,5.60
2022-10-22T22:14:24.835Z,4.63
2022-10-22T22:16:51.374Z,5.53
2022-10-22T22:19:17.903Z,5.05
2022-10-22T22:21:44.404Z,5.00
2022-10-22T22:24:12.753Z,4.47
2022-10-22T22:26:41.100Z,5.47
2022-10-22T22:29:07.637Z,5.22
2022-10-22T22:31:35.326Z,5.10
2022-10-22T22:34:03.315Z,5.30
2022-10-22T22:36:33.800Z,5.00
2022-10-22T22:39:00.437Z,6.22
2022-10-22T22:41:26.908Z,5.55
2022-10-22T22:46:26.708Z,4.90
2022-10-22T22:48:53.272Z,5.35
2022-10-22T22:51:20.028Z,4.97
2022-10-22T22:53:46.699Z,4.90
2022-10-22T22:56:15.277Z,4.32
2022-10-22T22:58:42.047Z,4.88
2022-10-22T23:01:15.890Z,5.20
2022-10-22T23:03:43.589Z,6.70
2022-10-22T23:06:10.943Z,6.60
2022-10-22T23:08:37.618Z,6.00
2022-10-22T23:11:05.648Z,6.35
2022-10-22T23:13:32.299Z,5.65
2022-10-22T23:15:58.840Z,6.10
2022-10-22T23:18:26.760Z,4.97
2022-10-22T23:20:53.269Z,5.68
2022-10-22T23:23:19.956Z,5.75
2022-10-22T23:25:46.550Z,5.43
2022-10-22T23:28:13.058Z,5.22
2022-10-22T23:30:42.651Z,5.60
2022-10-22T23:33:09.252Z,5.35
2022-10-22T23:35:40.645Z,5.90
2022-10-22T23:38:07.442Z,5.53
2022-10-22T23:40:33.984Z,6.10
2022-10-22T23:43:00.705Z,6.07
2022-10-22T23:45:27.240Z,6.53
2022-10-22T23:47:53.730Z,6.05
2022-10-22T23:50:20.312Z,5.95
2022-10-22T23:52:48.172Z,6.30
2022-10-22T23:55:14.699Z,5.80
2022-10-22T23:57:41.177Z,5.63
